Terminal Aerodrome Forecast
Issued by NWS Pocatello, ID

Home | Current Version | Previous Version | Text Only | Print | Product List | Glossary On
Versions: 1 2 3 4 5 6 7 8 9 10 11 12
589
FTUS45 KPIH 231905 AAA
TAFBYI
TAF AMD
KBYI 231905Z 2319/2418 27011G21KT P6SM VCSH BKN120
     FM232100 28011G21KT P6SM VCTS SCT050CB SCT100
     FM240300 24010KT P6SM VCSH SCT040 OVC060
     FM241200 VRB06KT 6SM -RA BR BKN025 OVC035=

USA.gov is the U.S. government's official web portal to all federal, state and local government web resources and services.